createdAt,value
2017-05-22T00:00:13.874Z,0
2017-05-22T00:01:15.605Z,0
2017-05-22T00:02:17.323Z,0
2017-05-22T00:03:18.979Z,0
2017-05-22T00:04:20.685Z,0
2017-05-22T00:05:22.325Z,0
2017-05-22T00:06:24.027Z,0
2017-05-22T00:07:25.764Z,0
2017-05-22T00:08:27.458Z,0
2017-05-22T00:09:29.258Z,0
2017-05-22T00:10:30.957Z,0
2017-05-22T00:11:32.619Z,0
2017-05-22T00:12:34.341Z,0
2017-05-22T00:13:36.152Z,0
2017-05-22T00:14:37.859Z,0
2017-05-22T00:15:39.580Z,0
2017-05-22T00:16:41.325Z,0
2017-05-22T00:17:43.060Z,0
2017-05-22T00:18:44.794Z,0
2017-05-22T00:19:46.525Z,0
2017-05-22T00:20:48.245Z,0
2017-05-22T00:21:50.041Z,0
2017-05-22T00:22:51.764Z,0
2017-05-22T00:23:53.556Z,0
2017-05-22T00:24:55.279Z,0
2017-05-22T00:25:57.065Z,0
2017-05-22T00:26:58.918Z,0
2017-05-22T00:28:40.209Z,0
2017-05-22T00:29:41.907Z,0
2017-05-22T00:30:43.797Z,0
2017-05-22T00:31:45.597Z,0
2017-05-22T00:32:47.390Z,0
2017-05-22T00:33:49.154Z,0
2017-05-22T00:34:50.818Z,0
2017-05-22T00:35:52.474Z,0
2017-05-22T00:36:54.170Z,0
2017-05-22T00:37:55.913Z,0
2017-05-22T00:38:57.733Z,0
2017-05-22T00:39:59.456Z,0
2017-05-22T00:41:01.150Z,0
2017-05-22T00:42:02.871Z,0
2017-05-22T00:43:04.575Z,0
2017-05-22T00:44:06.300Z,0
2017-05-22T00:45:07.954Z,0
2017-05-22T00:46:09.661Z,0
2017-05-22T00:47:11.362Z,0
2017-05-22T00:48:13.031Z,0
2017-05-22T00:49:14.733Z,0
2017-05-22T00:50:16.385Z,0
2017-05-22T00:51:18.057Z,0
2017-05-22T00:52:19.770Z,0
2017-05-22T00:53:22.256Z,0
2017-05-22T00:54:23.965Z,0
2017-05-22T00:55:25.659Z,0
2017-05-22T00:56:27.337Z,0
2017-05-22T00:57:28.976Z,0
2017-05-22T00:58:30.685Z,0
2017-05-22T00:59:32.343Z,0
2017-05-22T01:00:34.018Z,0
2017-05-22T01:01:35.784Z,0
2017-05-22T01:02:37.520Z,0
2017-05-22T01:04:19.147Z,0
2017-05-22T01:06:00.268Z,0
2017-05-22T01:07:01.931Z,0
2017-05-22T01:08:03.659Z,0
2017-05-22T01:09:05.328Z,0
2017-05-22T01:10:06.959Z,0
2017-05-22T01:11:08.636Z,0
2017-05-22T01:12:10.256Z,0
2017-05-22T01:13:12.006Z,0
2017-05-22T01:14:13.642Z,0
2017-05-22T01:15:15.245Z,0
2017-05-22T01:16:16.993Z,0
2017-05-22T01:17:18.650Z,0
2017-05-22T01:18:20.437Z,0
2017-05-22T01:19:22.114Z,0
2017-05-22T01:20:23.829Z,0
2017-05-22T01:21:25.483Z,0
2017-05-22T01:23:06.646Z,0
2017-05-22T01:24:08.280Z,0
2017-05-22T01:25:09.923Z,0
2017-05-22T01:26:11.539Z,0
2017-05-22T01:27:13.215Z,0
2017-05-22T01:28:14.924Z,0
2017-05-22T01:29:16.639Z,0
2017-05-22T01:30:18.334Z,0
2017-05-22T01:31:20.100Z,0
2017-05-22T01:32:21.713Z,0
2017-05-22T01:33:23.373Z,0
2017-05-22T01:34:25.053Z,0
2017-05-22T01:35:26.761Z,0
2017-05-22T01:36:28.398Z,0
2017-05-22T01:37:30.056Z,0
2017-05-22T01:38:31.715Z,0
2017-05-22T01:39:33.365Z,0
2017-05-22T01:40:35.182Z,0
2017-05-22T01:41:36.929Z,0
2017-05-22T01:42:38.680Z,0
2017-05-22T01:43:40.415Z,0
2017-05-22T01:44:42.072Z,0
2017-05-22T01:45:43.701Z,0
2017-05-22T01:46:45.404Z,0
2017-05-22T01:47:47.085Z,0
2017-05-22T01:48:48.804Z,0
2017-05-22T01:49:50.422Z,0
2017-05-22T01:50:52.104Z,0
2017-05-22T01:51:53.802Z,0
2017-05-22T01:52:55.423Z,0
2017-05-22T01:53:57.116Z,0
2017-05-22T01:54:58.755Z,0
2017-05-22T01:56:00.434Z,0
2017-05-22T01:57:02.169Z,0
2017-05-22T01:58:03.867Z,0
2017-05-22T01:59:05.590Z,0
2017-05-22T02:00:07.315Z,0
2017-05-22T02:01:09.021Z,0
2017-05-22T02:02:10.718Z,0
2017-05-22T02:03:12.384Z,0
2017-05-22T02:04:14.069Z,0
2017-05-22T02:05:15.801Z,0
2017-05-22T02:06:17.464Z,0
2017-05-22T02:07:19.239Z,0
2017-05-22T02:08:20.905Z,0
2017-05-22T02:09:22.590Z,0
2017-05-22T02:10:24.279Z,0
2017-05-22T02:11:25.949Z,0
2017-05-22T02:12:27.679Z,0
2017-05-22T02:13:29.394Z,0
2017-05-22T02:15:11.174Z,0
2017-05-22T02:16:53.902Z,0
2017-05-22T02:17:55.651Z,0
2017-05-22T02:18:57.337Z,0
2017-05-22T02:19:58.990Z,0
2017-05-22T02:21:00.661Z,0
2017-05-22T02:22:02.503Z,0
2017-05-22T02:23:04.227Z,0
2017-05-22T02:24:05.953Z,0
2017-05-22T02:25:07.598Z,0
2017-05-22T02:26:09.244Z,0
2017-05-22T02:27:10.925Z,0
2017-05-22T02:28:12.560Z,0
2017-05-22T02:29:14.200Z,0
2017-05-22T02:30:15.856Z,0
2017-05-22T02:31:17.649Z,0
2017-05-22T02:32:19.351Z,0
2017-05-22T02:33:20.958Z,0
2017-05-22T02:34:22.628Z,0
2017-05-22T02:35:24.324Z,0
2017-05-22T02:36:26.048Z,0
2017-05-22T02:37:27.729Z,0
2017-05-22T02:38:29.474Z,0
2017-05-22T02:39:31.150Z,0
2017-05-22T02:40:32.869Z,0
2017-05-22T02:41:34.516Z,0
2017-05-22T02:42:36.165Z,0
2017-05-22T02:43:38.029Z,4
2017-05-22T02:44:39.697Z,4
2017-05-22T02:45:41.551Z,4
2017-05-22T02:46:43.213Z,0
2017-05-22T02:47:44.969Z,4
2017-05-22T02:48:46.706Z,4
2017-05-22T02:49:48.345Z,4
2017-05-22T02:50:49.994Z,4
2017-05-22T02:51:51.638Z,4
2017-05-22T02:52:53.383Z,8
2017-05-22T02:53:55.033Z,4
2017-05-22T02:54:56.763Z,8
2017-05-22T02:55:58.418Z,8
2017-05-22T02:57:00.156Z,8
2017-05-22T02:58:01.793Z,12
2017-05-22T02:59:03.464Z,12
2017-05-22T03:00:05.105Z,12
2017-05-22T03:01:06.747Z,12
2017-05-22T03:02:08.446Z,16
2017-05-22T03:03:10.125Z,20
2017-05-22T03:04:11.808Z,20
2017-05-22T03:05:13.477Z,20
2017-05-22T03:06:15.261Z,24
2017-05-22T03:07:16.911Z,32
2017-05-22T03:08:58.108Z,36
2017-05-22T03:09:59.745Z,44
2017-05-22T03:11:01.364Z,48
2017-05-22T03:12:03.002Z,56
2017-05-22T03:13:04.798Z,60
2017-05-22T03:14:06.478Z,68
2017-05-22T03:15:08.130Z,76
2017-05-22T03:16:09.794Z,80
2017-05-22T03:17:11.459Z,92
2017-05-22T03:18:13.224Z,100
2017-05-22T03:19:15.010Z,108
2017-05-22T03:20:16.730Z,120
2017-05-22T03:21:18.432Z,128
2017-05-22T03:22:20.179Z,140
2017-05-22T03:23:21.851Z,148
2017-05-22T03:24:23.573Z,160
2017-05-22T03:25:25.207Z,172
2017-05-22T03:26:26.893Z,184
2017-05-22T03:27:28.668Z,200
2017-05-22T03:28:30.363Z,216
2017-05-22T03:29:32.063Z,236
2017-05-22T03:30:33.769Z,260
2017-05-22T03:31:35.530Z,280
2017-05-22T03:32:37.317Z,304
2017-05-22T03:33:39.082Z,336
2017-05-22T03:34:40.757Z,364
2017-05-22T03:35:42.385Z,404
2017-05-22T03:36:44.074Z,440
2017-05-22T03:37:45.844Z,476
2017-05-22T03:38:47.478Z,512
2017-05-22T03:39:49.153Z,536
2017-05-22T03:40:50.826Z,548
2017-05-22T03:41:52.457Z,572
2017-05-22T03:42:54.178Z,608
2017-05-22T03:43:55.877Z,648
2017-05-22T03:44:57.621Z,688
2017-05-22T03:46:01.918Z,732
2017-05-22T03:47:01.279Z,776
2017-05-22T03:48:03.073Z,832
2017-05-22T03:49:04.916Z,884
2017-05-22T03:50:06.613Z,944
2017-05-22T03:51:08.393Z,1000
2017-05-22T03:52:10.186Z,1068
2017-05-22T03:53:11.960Z,1144
2017-05-22T03:54:13.684Z,1216
2017-05-22T03:55:16.013Z,1296
2017-05-22T03:56:17.770Z,1376
2017-05-22T03:57:19.488Z,1448
2017-05-22T03:58:21.166Z,1512
2017-05-22T03:59:22.877Z,1564
2017-05-22T04:01:04.095Z,1672
2017-05-22T04:02:05.809Z,1716
2017-05-22T04:03:07.562Z,1748
2017-05-22T04:04:09.262Z,1772
2017-05-22T04:05:10.936Z,1808
2017-05-22T04:06:12.785Z,1844
2017-05-22T04:07:14.457Z,1872
2017-05-22T04:08:16.227Z,1900
2017-05-22T04:09:17.996Z,1924
2017-05-22T04:10:19.697Z,1964
2017-05-22T04:11:21.409Z,2012
2017-05-22T04:12:23.056Z,2080
2017-05-22T04:13:24.706Z,2152
2017-05-22T04:14:26.343Z,2232
2017-05-22T04:15:27.963Z,2316
2017-05-22T04:16:29.661Z,2400
2017-05-22T04:17:31.341Z,2484
2017-05-22T04:18:32.970Z,2556
2017-05-22T04:19:34.624Z,2624
2017-05-22T04:20:36.316Z,2696
2017-05-22T04:21:38.057Z,2772
2017-05-22T04:22:39.737Z,2864
2017-05-22T04:23:41.392Z,2956
2017-05-22T04:24:43.075Z,3044
2017-05-22T04:25:44.877Z,3116
2017-05-22T04:26:46.573Z,3180
2017-05-22T04:27:48.234Z,3268
2017-05-22T04:28:49.998Z,3400
2017-05-22T04:29:51.673Z,3648
2017-05-22T04:30:53.428Z,3948
2017-05-22T04:31:55.175Z,4020
2017-05-22T04:32:56.994Z,4080
2017-05-22T04:33:58.751Z,4028
2017-05-22T04:35:00.459Z,4004
2017-05-22T04:36:02.280Z,4020
2017-05-22T04:37:03.903Z,4244
2017-05-22T04:38:05.653Z,4612
2017-05-22T04:39:07.339Z,4668
2017-05-22T04:40:09.002Z,4844
2017-05-22T04:41:11.028Z,5124
2017-05-22T04:42:12.684Z,6232
2017-05-22T04:43:53.852Z,8908
2017-05-22T04:45:35.061Z,12344
2017-05-22T04:46:36.896Z,13388
2017-05-22T04:47:38.752Z,13756
2017-05-22T04:48:40.624Z,14224
2017-05-22T04:49:42.293Z,14592
2017-05-22T04:50:44.703Z,15392
2017-05-22T04:51:46.500Z,15712
2017-05-22T04:53:27.722Z,16768
2017-05-22T04:55:08.954Z,17344
2017-05-22T04:56:10.627Z,17088
2017-05-22T04:57:12.477Z,17440
2017-05-22T04:58:14.204Z,18144
2017-05-22T04:59:15.937Z,18848
2017-05-22T05:00:18.333Z,18304
2017-05-22T05:01:20.052Z,18560
2017-05-22T05:02:21.854Z,20160
2017-05-22T05:03:23.595Z,21632
2017-05-22T05:04:25.368Z,22528
2017-05-22T05:05:27.166Z,23744
2017-05-22T05:06:28.900Z,24192
2017-05-22T05:07:30.589Z,25504
2017-05-22T05:08:32.278Z,26272
2017-05-22T05:09:34.011Z,26016
2017-05-22T05:10:35.795Z,26240
2017-05-22T05:11:37.602Z,28416
2017-05-22T05:12:39.340Z,29792
2017-05-22T05:13:41.082Z,30208
2017-05-22T05:14:42.932Z,30144
2017-05-22T05:15:44.960Z,29888
2017-05-22T05:16:46.904Z,30464
2017-05-22T05:17:48.604Z,30400
2017-05-22T05:18:50.265Z,32416
2017-05-22T05:19:51.982Z,33024
2017-05-22T05:20:53.736Z,32480
2017-05-22T05:21:55.427Z,32544
2017-05-22T05:22:57.276Z,34624
2017-05-22T05:23:59.129Z,36672
2017-05-22T05:25:00.876Z,35104
2017-05-22T05:26:02.649Z,35456
2017-05-22T05:27:04.534Z,37024
2017-05-22T05:28:06.262Z,37792
2017-05-22T05:29:07.961Z,37440
2017-05-22T05:30:09.731Z,36480
2017-05-22T05:31:11.563Z,36928
2017-05-22T05:32:13.276Z,36896
2017-05-22T05:33:15.065Z,36992
2017-05-22T05:34:16.702Z,37984
2017-05-22T05:35:18.425Z,39872
2017-05-22T05:36:20.090Z,38848
2017-05-22T05:37:21.844Z,39520
2017-05-22T05:38:23.601Z,42304
2017-05-22T05:39:25.281Z,42240
2017-05-22T05:40:27.016Z,40960
2017-05-22T05:41:28.702Z,41888
2017-05-22T05:42:30.485Z,42432
2017-05-22T05:43:32.075Z,42912
2017-05-22T05:44:33.738Z,43616
2017-05-22T05:46:15.070Z,45856
2017-05-22T05:47:56.835Z,44224
2017-05-22T05:48:58.539Z,44384
2017-05-22T05:50:00.207Z,45504
2017-05-22T05:51:01.882Z,43264
2017-05-22T05:52:03.627Z,43104
2017-05-22T05:53:05.413Z,45088
2017-05-22T05:54:07.173Z,46368
2017-05-22T05:55:08.898Z,45568
2017-05-22T05:56:10.615Z,46176
2017-05-22T05:57:12.293Z,46400
2017-05-22T05:58:13.968Z,46368
2017-05-22T05:59:15.699Z,47456
2017-05-22T06:00:17.491Z,48800
2017-05-22T06:01:19.194Z,49984
2017-05-22T06:02:20.817Z,52512
2017-05-22T06:03:22.546Z,52288
2017-05-22T06:04:24.280Z,52512
2017-05-22T06:05:26.230Z,51552
2017-05-22T06:06:27.903Z,50912
2017-05-22T06:07:29.632Z,53792
2017-05-22T06:08:31.311Z,54304
2017-05-22T06:09:33.108Z,54144
2017-05-22T06:10:34.796Z,54432
2017-05-22T06:11:36.415Z,50880
2017-05-22T06:12:38.064Z,47904
2017-05-22T06:13:39.742Z,49408
2017-05-22T06:14:41.413Z,52128
2017-05-22T06:15:43.135Z,52640
2017-05-22T06:16:44.898Z,52704
2017-05-22T06:17:46.619Z,52352
2017-05-22T06:18:48.287Z,53248
2017-05-22T06:19:49.901Z,56128
2017-05-22T06:20:51.769Z,57280
2017-05-22T06:21:53.480Z,55104
2017-05-22T06:22:55.183Z,53024
2017-05-22T06:23:56.912Z,56832
2017-05-22T06:24:58.563Z,59680
2017-05-22T06:26:00.216Z,58240
2017-05-22T06:27:01.957Z,56672
2017-05-22T06:28:03.628Z,56864
2017-05-22T06:29:05.281Z,61376
2017-05-22T06:30:07.901Z,59040
2017-05-22T06:31:09.538Z,56544
2017-05-22T06:32:11.209Z,60576
2017-05-22T06:33:12.895Z,58464
2017-05-22T06:34:14.643Z,57760
2017-05-22T06:35:16.308Z,62912
2017-05-22T06:36:17.967Z,62752
2017-05-22T06:37:19.662Z,62368
2017-05-22T06:38:21.351Z,59488
2017-05-22T06:39:23.000Z,63264
2017-05-22T06:41:04.167Z,66528
2017-05-22T06:42:05.872Z,57184
2017-05-22T06:43:07.479Z,55456
2017-05-22T06:44:09.178Z,58016
2017-05-22T06:45:10.817Z,59968
2017-05-22T06:46:14.766Z,61088
2017-05-22T06:47:16.391Z,65024
2017-05-22T06:48:18.081Z,61184
2017-05-22T06:49:19.756Z,59648
2017-05-22T06:50:21.397Z,59776
2017-05-22T06:51:23.095Z,67872
2017-05-22T06:52:24.747Z,66912
2017-05-22T06:53:26.531Z,60320
2017-05-22T06:54:28.200Z,62784
2017-05-22T06:55:29.882Z,68608
2017-05-22T06:56:31.538Z,68000
2017-05-22T06:57:33.214Z,64864
2017-05-22T06:58:34.941Z,65440
2017-05-22T06:59:36.607Z,70464
2017-05-22T07:00:38.297Z,65664
2017-05-22T07:01:39.934Z,63232
2017-05-22T07:02:41.627Z,65696
2017-05-22T07:03:43.319Z,65568
2017-05-22T07:04:44.949Z,71968
2017-05-22T07:05:46.643Z,70880
2017-05-22T07:06:48.273Z,66336
2017-05-22T07:07:49.957Z,68224
2017-05-22T07:08:51.742Z,69152
2017-05-22T07:09:53.441Z,69344
2017-05-22T07:10:55.080Z,71456
2017-05-22T07:11:56.733Z,72704
2017-05-22T07:12:58.412Z,73280
2017-05-22T07:14:00.152Z,72256
2017-05-22T07:15:01.797Z,71104
2017-05-22T07:16:03.497Z,68608
2017-05-22T07:17:05.258Z,72224
2017-05-22T07:18:06.854Z,70656
2017-05-22T07:19:08.609Z,68992
2017-05-22T07:20:10.303Z,72384
2017-05-22T07:21:12.235Z,72448
2017-05-22T07:22:13.951Z,71008
2017-05-22T07:23:15.703Z,73472
2017-05-22T07:24:17.459Z,75520
2017-05-22T07:25:19.171Z,73472
2017-05-22T07:26:20.875Z,77056
2017-05-22T07:27:22.571Z,77248
2017-05-22T07:28:24.269Z,75776
2017-05-22T07:29:25.969Z,75744
2017-05-22T07:30:27.705Z,77536
2017-05-22T07:31:29.617Z,78944
2017-05-22T07:33:10.865Z,73472
2017-05-22T07:34:12.651Z,79232
2017-05-22T07:35:14.432Z,80448
2017-05-22T07:36:16.287Z,75712
2017-05-22T07:37:18.063Z,72832
2017-05-22T07:38:19.750Z,76320
2017-05-22T07:39:21.422Z,83872
2017-05-22T07:40:23.076Z,84096
2017-05-22T07:41:24.718Z,82336
2017-05-22T07:42:26.436Z,81696
2017-05-22T07:43:28.420Z,81984
2017-05-22T07:44:30.133Z,83328
2017-05-22T07:45:31.799Z,82240
2017-05-22T07:46:33.573Z,77472
2017-05-22T07:47:35.279Z,76448
2017-05-22T07:48:37.004Z,78624
2017-05-22T07:49:38.703Z,77920
2017-05-22T07:50:40.362Z,84192
2017-05-22T07:51:42.039Z,87136
2017-05-22T07:52:43.703Z,80384
2017-05-22T07:53:45.494Z,82240
2017-05-22T07:54:47.173Z,85344
2017-05-22T07:55:48.865Z,85152
2017-05-22T07:56:50.491Z,86592
2017-05-22T07:57:52.120Z,83104
2017-05-22T07:58:53.831Z,80992
2017-05-22T07:59:55.489Z,83104
2017-05-22T08:00:57.300Z,80608
2017-05-22T08:01:58.945Z,84704
2017-05-22T08:03:00.604Z,88000
2017-05-22T08:04:02.297Z,88224
2017-05-22T08:05:03.997Z,89056
2017-05-22T08:06:05.728Z,88224
2017-05-22T08:07:07.408Z,91392
2017-05-22T08:08:10.264Z,87424
2017-05-22T08:09:11.943Z,81344
2017-05-22T08:10:14.344Z,78784
2017-05-22T08:11:16.064Z,83168
2017-05-22T08:12:18.083Z,87232
2017-05-22T08:13:19.775Z,83552
2017-05-22T08:14:21.387Z,80864
2017-05-22T08:15:23.109Z,81792
2017-05-22T08:16:24.765Z,89984
2017-05-22T08:17:26.463Z,86592
2017-05-22T08:18:28.109Z,78752
2017-05-22T08:19:29.825Z,78272
2017-05-22T08:20:31.550Z,80672
2017-05-22T08:21:33.209Z,79872
2017-05-22T08:22:34.938Z,76640
2017-05-22T08:24:16.157Z,85824
2017-05-22T08:25:57.400Z,86912
2017-05-22T08:26:59.061Z,86432
2017-05-22T08:28:00.827Z,88896
2017-05-22T08:29:02.452Z,90912
2017-05-22T08:30:04.109Z,90656
2017-05-22T08:31:05.862Z,89824
2017-05-22T08:32:07.546Z,88064
2017-05-22T08:33:09.240Z,90400
2017-05-22T08:34:10.974Z,89664
2017-05-22T08:35:12.734Z,79008
2017-05-22T08:36:14.493Z,76256
2017-05-22T08:37:16.238Z,87584
2017-05-22T08:38:17.913Z,83488
2017-05-22T08:39:19.626Z,82016
2017-05-22T08:40:21.314Z,92384
2017-05-22T08:41:23.353Z,84864
2017-05-22T08:42:25.025Z,81952
2017-05-22T08:43:26.689Z,82688
2017-05-22T08:44:28.333Z,81760
2017-05-22T08:45:30.022Z,82368
2017-05-22T08:46:31.783Z,82656
2017-05-22T08:47:33.404Z,82816
2017-05-22T08:48:35.059Z,86368
2017-05-22T08:49:36.735Z,87392
2017-05-22T08:50:38.862Z,83680
2017-05-22T08:51:40.533Z,87968
2017-05-22T08:52:42.195Z,88864
2017-05-22T08:53:43.835Z,84032
2017-05-22T08:54:45.500Z,85344
2017-05-22T08:55:47.170Z,85728
2017-05-22T08:56:48.870Z,83712
2017-05-22T08:57:50.556Z,85472
2017-05-22T08:58:52.198Z,83744
2017-05-22T08:59:53.914Z,76672
2017-05-22T09:00:55.579Z,79776
2017-05-22T09:01:57.273Z,79840
2017-05-22T09:02:58.908Z,80992
2017-05-22T09:04:00.569Z,80128
2017-05-22T09:05:02.236Z,80928
2017-05-22T09:06:03.990Z,78976
2017-05-22T09:07:05.691Z,78848
2017-05-22T09:08:08.244Z,80736
2017-05-22T09:09:09.908Z,81216
2017-05-22T09:10:11.575Z,82496
2017-05-22T09:11:13.252Z,83744
2017-05-22T09:12:14.980Z,74912
2017-05-22T09:13:16.835Z,74432
2017-05-22T09:14:18.567Z,74592
2017-05-22T09:15:20.373Z,71680
2017-05-22T09:17:01.651Z,87168
2017-05-22T09:18:43.453Z,74528
2017-05-22T09:19:45.171Z,78080
2017-05-22T09:20:46.881Z,79264
2017-05-22T09:21:48.527Z,83296
2017-05-22T09:22:50.294Z,85888
2017-05-22T09:23:52.031Z,93888
2017-05-22T09:24:53.684Z,91712
2017-05-22T09:25:55.402Z,82304
2017-05-22T09:26:57.159Z,81184
2017-05-22T09:27:58.794Z,90112
2017-05-22T09:29:00.544Z,94784
2017-05-22T09:30:02.252Z,85184
2017-05-22T09:31:03.924Z,78464
2017-05-22T09:32:05.753Z,80000
2017-05-22T09:33:07.391Z,76032
2017-05-22T09:34:09.085Z,75648
2017-05-22T09:35:10.880Z,78176
2017-05-22T09:36:13.038Z,77376
2017-05-22T09:37:14.798Z,75168
2017-05-22T09:38:16.420Z,72960
2017-05-22T09:39:18.231Z,46720
2017-05-22T09:40:20.187Z,18848
2017-05-22T09:41:21.816Z,14432
2017-05-22T09:42:23.688Z,13680
2017-05-22T09:43:25.434Z,11516
2017-05-22T09:44:27.079Z,12456
2017-05-22T09:45:28.836Z,12248
2017-05-22T09:46:30.512Z,12088
2017-05-22T09:47:32.225Z,11928
2017-05-22T09:48:33.872Z,11768
2017-05-22T09:49:35.552Z,11596
2017-05-22T09:50:37.215Z,11476
2017-05-22T09:51:38.861Z,11404
2017-05-22T09:52:40.589Z,11352
2017-05-22T09:53:42.265Z,11324
2017-05-22T09:54:44.025Z,11352
2017-05-22T09:55:45.680Z,11456
2017-05-22T09:56:47.384Z,11676
2017-05-22T09:57:49.152Z,11928
2017-05-22T09:58:50.985Z,12220
2017-05-22T09:59:52.637Z,11364
2017-05-22T10:00:54.455Z,10732
2017-05-22T10:01:56.197Z,10356
2017-05-22T10:02:57.961Z,10300
2017-05-22T10:03:59.645Z,10076
2017-05-22T10:05:01.340Z,8176
2017-05-22T10:06:03.167Z,9828
2017-05-22T10:07:04.796Z,9784
2017-05-22T10:08:06.507Z,9660
2017-05-22T10:09:08.350Z,9580
2017-05-22T10:10:49.544Z,9364
2017-05-22T10:11:51.188Z,9328
2017-05-22T10:12:52.843Z,9292
2017-05-22T10:13:54.524Z,9204
2017-05-22T10:14:56.247Z,9184
2017-05-22T10:15:57.985Z,8964
2017-05-22T10:16:59.666Z,8752
2017-05-22T10:18:01.292Z,8480
2017-05-22T10:19:02.955Z,8680
2017-05-22T10:20:04.616Z,8680
2017-05-22T10:21:06.350Z,8736
2017-05-22T10:22:08.031Z,8784
2017-05-22T10:23:09.754Z,8868
2017-05-22T10:24:11.403Z,8956
2017-05-22T10:25:13.132Z,9108
2017-05-22T10:26:15.480Z,9168
2017-05-22T10:27:17.118Z,8884
2017-05-22T10:28:18.878Z,8588
2017-05-22T10:29:20.551Z,8460
2017-05-22T10:30:22.222Z,8360
2017-05-22T10:31:24.036Z,8272
2017-05-22T10:32:25.677Z,8124
2017-05-22T10:33:27.326Z,8132
2017-05-22T10:34:28.979Z,8224
2017-05-22T10:35:30.768Z,8304
2017-05-22T10:36:32.403Z,8372
2017-05-22T10:37:34.074Z,8552
2017-05-22T10:38:35.702Z,8620
2017-05-22T10:39:37.306Z,8612
2017-05-22T10:40:39.040Z,8216
2017-05-22T10:41:40.743Z,7904
2017-05-22T10:42:42.425Z,7860
2017-05-22T10:43:44.102Z,7948
2017-05-22T10:44:45.804Z,8092
2017-05-22T10:45:48.430Z,8388
2017-05-22T10:46:50.148Z,8708
2017-05-22T10:47:51.828Z,8924
2017-05-22T10:48:53.697Z,9052
2017-05-22T10:49:55.463Z,8828
2017-05-22T10:50:57.799Z,8620
2017-05-22T10:51:59.570Z,8360
2017-05-22T10:53:01.328Z,8440
2017-05-22T10:54:03.034Z,8404
2017-05-22T10:55:04.795Z,8184
2017-05-22T10:56:06.490Z,8052
2017-05-22T10:57:08.233Z,7704
2017-05-22T10:58:09.926Z,7532
2017-05-22T10:59:11.689Z,7144
2017-05-22T11:00:13.381Z,7028
2017-05-22T11:01:15.120Z,6744
2017-05-22T11:02:16.839Z,6336
2017-05-22T11:03:18.611Z,6140
2017-05-22T11:04:20.325Z,6128
2017-05-22T11:05:22.011Z,6176
2017-05-22T11:06:23.742Z,6232
2017-05-22T11:07:25.466Z,6296
2017-05-22T11:08:27.238Z,6336
2017-05-22T11:09:28.924Z,6380
2017-05-22T11:10:30.571Z,6440
2017-05-22T11:11:32.250Z,6564
2017-05-22T11:12:34.095Z,6792
2017-05-22T11:13:36.351Z,7040
2017-05-22T11:14:38.029Z,7292
2017-05-22T11:15:39.870Z,7312
2017-05-22T11:16:41.564Z,6904
2017-05-22T11:17:43.216Z,6684
2017-05-22T11:18:44.901Z,6312
2017-05-22T11:19:46.537Z,5976
2017-05-22T11:20:48.256Z,5756
2017-05-22T11:21:50.032Z,5656
2017-05-22T11:22:51.640Z,5652
2017-05-22T11:23:53.314Z,5712
2017-05-22T11:24:54.982Z,5712
2017-05-22T11:25:56.655Z,5652
2017-05-22T11:26:58.315Z,5604
2017-05-22T11:28:00.023Z,5560
2017-05-22T11:29:01.735Z,5512
2017-05-22T11:30:03.420Z,5464
2017-05-22T11:31:05.068Z,5448
2017-05-22T11:32:06.793Z,5444
2017-05-22T11:33:08.459Z,5448
2017-05-22T11:34:10.204Z,5444
2017-05-22T11:35:11.869Z,5468
2017-05-22T11:36:13.513Z,5532
2017-05-22T11:37:15.158Z,5616
2017-05-22T11:38:16.849Z,5680
2017-05-22T11:39:19.518Z,5820
2017-05-22T11:40:21.215Z,5924
2017-05-22T11:41:22.891Z,5928
2017-05-22T11:42:24.568Z,6048
2017-05-22T11:43:26.248Z,6152
2017-05-22T11:44:28.086Z,6016
2017-05-22T11:45:29.787Z,5904
2017-05-22T11:46:31.501Z,5776
2017-05-22T11:47:33.193Z,5604
2017-05-22T11:48:34.834Z,5588
2017-05-22T11:49:36.562Z,5712
2017-05-22T11:50:38.381Z,5748
2017-05-22T11:51:40.094Z,5648
2017-05-22T11:52:41.757Z,5652
2017-05-22T11:53:43.401Z,5676
2017-05-22T11:54:45.063Z,5624
2017-05-22T11:55:46.775Z,5496
2017-05-22T11:56:48.562Z,5368
2017-05-22T11:57:50.316Z,5252
2017-05-22T11:58:52.090Z,5212
2017-05-22T11:59:54.494Z,5204
2017-05-22T12:00:56.166Z,5156
2017-05-22T12:01:57.907Z,5104
2017-05-22T12:02:59.575Z,5084
2017-05-22T12:04:01.222Z,5076
2017-05-22T12:05:02.853Z,5056
2017-05-22T12:06:04.535Z,5032
2017-05-22T12:07:06.218Z,5004
2017-05-22T12:08:07.829Z,4980
2017-05-22T12:09:09.586Z,4940
2017-05-22T12:10:11.209Z,4936
2017-05-22T12:11:12.885Z,4940
2017-05-22T12:12:14.568Z,4944
2017-05-22T12:13:16.201Z,4936
2017-05-22T12:14:17.956Z,4928
2017-05-22T12:15:19.822Z,4900
2017-05-22T12:16:21.485Z,4888
2017-05-22T12:17:23.144Z,4944
2017-05-22T12:18:24.815Z,5032
2017-05-22T12:19:26.463Z,5104
2017-05-22T12:20:28.193Z,5096
2017-05-22T12:21:29.872Z,4988
2017-05-22T12:22:31.593Z,4928
2017-05-22T12:23:33.264Z,4852
2017-05-22T12:24:34.992Z,4828
2017-05-22T12:25:36.693Z,4796
2017-05-22T12:26:38.346Z,4768
2017-05-22T12:27:40.055Z,4720
2017-05-22T12:28:41.798Z,4704
2017-05-22T12:29:43.527Z,4688
2017-05-22T12:30:45.271Z,4664
2017-05-22T12:31:46.912Z,4648
2017-05-22T12:32:48.613Z,4632
2017-05-22T12:33:50.295Z,4616
2017-05-22T12:34:51.955Z,4608
2017-05-22T12:35:53.682Z,4600
2017-05-22T12:36:55.353Z,4584
2017-05-22T12:37:57.177Z,4560
2017-05-22T12:38:58.839Z,4568
2017-05-22T12:40:00.589Z,4564
2017-05-22T12:41:02.333Z,4576
2017-05-22T12:42:04.636Z,4556
2017-05-22T12:43:06.293Z,4536
2017-05-22T12:44:08.002Z,4528
2017-05-22T12:45:09.666Z,4484
2017-05-22T12:46:11.373Z,4460
2017-05-22T12:47:13.123Z,4428
2017-05-22T12:48:54.300Z,4396
2017-05-22T12:49:55.993Z,4400
2017-05-22T12:50:57.845Z,4396
2017-05-22T12:51:59.493Z,4392
2017-05-22T12:53:01.220Z,4328
2017-05-22T12:54:02.966Z,4348
2017-05-22T12:55:04.687Z,4352
2017-05-22T12:56:06.479Z,4348
2017-05-22T12:57:08.171Z,4332
2017-05-22T12:58:09.858Z,4348
2017-05-22T12:59:11.608Z,4332
2017-05-22T13:00:13.245Z,4304
2017-05-22T13:01:14.966Z,4368
2017-05-22T13:02:16.643Z,4392
2017-05-22T13:03:18.509Z,4412
2017-05-22T13:04:20.182Z,4340
2017-05-22T13:05:21.841Z,4488
2017-05-22T13:06:23.533Z,4476
2017-05-22T13:07:25.233Z,4460
2017-05-22T13:08:26.938Z,4444
2017-05-22T13:09:28.646Z,4408
2017-05-22T13:10:30.347Z,4416
2017-05-22T13:11:32.046Z,4424
2017-05-22T13:12:33.684Z,4360
2017-05-22T13:13:35.460Z,4444
2017-05-22T13:14:37.178Z,4496
2017-05-22T13:15:39.013Z,4472
2017-05-22T13:16:40.781Z,4448
2017-05-22T13:17:42.455Z,4304
2017-05-22T13:18:44.189Z,4376
2017-05-22T13:19:45.836Z,4432
2017-05-22T13:20:47.510Z,3916
2017-05-22T13:21:49.222Z,4488
2017-05-22T13:22:50.886Z,4556
2017-05-22T13:23:52.588Z,4680
2017-05-22T13:24:54.238Z,4776
2017-05-22T13:25:55.917Z,4768
2017-05-22T13:26:57.727Z,4732
2017-05-22T13:27:59.369Z,4748
2017-05-22T13:29:01.096Z,4692
2017-05-22T13:30:02.744Z,4648
2017-05-22T13:31:04.413Z,4604
2017-05-22T13:32:06.068Z,4592
2017-05-22T13:33:07.863Z,4612
2017-05-22T13:34:09.563Z,4612
2017-05-22T13:35:11.230Z,4588
2017-05-22T13:36:12.903Z,4552
2017-05-22T13:37:14.593Z,4540
2017-05-22T13:38:16.294Z,4540
2017-05-22T13:39:18.034Z,4508
2017-05-22T13:40:19.695Z,4496
2017-05-22T13:41:21.423Z,4472
2017-05-22T13:42:23.062Z,4460
2017-05-22T13:43:24.821Z,4456
2017-05-22T13:44:26.508Z,4420
2017-05-22T13:45:28.187Z,4396
2017-05-22T13:46:29.874Z,4356
2017-05-22T13:47:31.527Z,4348
2017-05-22T13:48:33.244Z,4308
2017-05-22T13:49:34.896Z,4296
2017-05-22T13:50:36.529Z,4272
2017-05-22T13:51:38.201Z,4252
2017-05-22T13:52:39.938Z,4240
2017-05-22T13:53:41.603Z,4228
2017-05-22T13:54:43.264Z,4220
2017-05-22T13:55:44.960Z,4216
2017-05-22T13:56:46.679Z,4212
2017-05-22T13:57:48.387Z,4208
2017-05-22T13:58:50.052Z,4212
2017-05-22T13:59:51.730Z,4220
2017-05-22T14:00:53.416Z,4208
2017-05-22T14:01:55.059Z,4200
2017-05-22T14:02:56.758Z,4188
2017-05-22T14:03:58.477Z,4164
2017-05-22T14:05:00.158Z,4152